Time;durP1;ratioP1;P1;durP2;ratioP2;P2;SDS_P1;SDS_P2;PMS_P1;PMS_P2;Temp;Humidity;BMP_temperature;BMP_pressure;BME280_temperature;BME280_humidity;BME280_pressure;Samples;Min_cycle;Max_cycle;Signal;HPM_P1;HPM_P2
2021/06/12 00:06:09;;;;;;;12.53;8.23;;;;;;;17.57;91.22;100230.35;713817;1199;114754;-73
2021/06/12 00:21:30;;;;;;;12.33;8.18;;;;;;;17.29;91.45;100241.57;714092;1199;115091;-73
2021/06/12 00:36:51;;;;;;;16.27;9.43;;;;;;;17.10;94.52;100217.22;713872;1199;114982;-73
2021/06/12 00:52:15;;;;;;;11.23;7.23;;;;;;;17.33;94.09;100218.99;713847;1200;114113;-73
2021/06/12 01:07:36;;;;;;;16.80;9.60;;;;;;;17.07;95.51;100214.91;713761;1200;114276;-74
2021/06/12 01:23:13;;;;;;;14.73;8.48;;;;;;;16.60;95.86;100202.67;713936;1174;114832;-74
2021/06/12 01:38:38;;;;;;;12.43;8.10;;;;;;;16.12;98.79;100190.41;713783;1199;115208;-73
2021/06/12 01:53:59;;;;;;;15.67;8.33;;;;;;;16.18;99.70;100182.77;713747;1202;115150;-73
2021/06/12 02:09:20;;;;;;;22.33;9.85;;;;;;;16.03;100.00;100167.63;714156;1199;115263;-74
2021/06/12 02:24:41;;;;;;;11.65;8.40;;;;;;;15.74;100.00;100162.95;713905;1174;114593;-73
2021/06/12 02:40:03;;;;;;;14.13;9.15;;;;;;;15.14;100.00;100165.13;713941;1175;113710;-73
2021/06/12 02:55:24;;;;;;;17.60;8.30;;;;;;;15.20;100.00;100158.34;713936;1177;114574;-74
2021/06/12 03:10:47;;;;;;;14.73;8.60;;;;;;;15.48;100.00;100141.08;713813;1174;114647;-73
2021/06/12 03:26:10;;;;;;;11.73;8.13;;;;;;;15.59;100.00;100150.45;713827;1202;114230;-74
2021/06/12 03:41:30;;;;;;;18.35;10.25;;;;;;;16.02;100.00;100147.48;713742;1203;114993;-74
2021/06/12 03:56:50;;;;;;;14.45;8.83;;;;;;;16.26;100.00;100140.39;714132;1202;114530;-73
2021/06/12 04:12:13;;;;;;;13.47;9.27;;;;;;;16.69;100.00;100137.24;714068;1199;115375;-74
2021/06/12 04:27:34;;;;;;;18.43;12.77;;;;;;;17.22;100.00;100110.75;714212;1199;114889;-74
2021/06/12 04:42:54;;;;;;;16.80;10.95;;;;;;;17.97;100.00;100100.86;714034;1199;115124;-73
2021/06/12 04:58:15;;;;;;;13.40;11.08;;;;;;;18.60;100.00;100111.66;713845;1203;114347;-74
2021/06/12 05:13:36;;;;;;;15.20;10.88;;;;;;;19.34;100.00;100090.08;716740;1165;114209;-81
2021/06/12 05:28:57;;;;;;;16.20;10.18;;;;;;;20.07;100.00;100087.67;713797;1202;114318;-83
2021/06/12 05:44:17;;;;;;;9.43;6.55;;;;;;;21.06;98.70;100079.86;713700;1205;114981;-83
2021/06/12 05:59:37;;;;;;;8.05;6.25;;;;;;;21.98;95.03;100070.03;714033;1206;114260;-84
2021/06/12 06:14:58;;;;;;;6.98;6.28;;;;;;;21.71;90.68;100081.69;714002;1202;114969;-82
2021/06/12 06:30:19;;;;;;;8.03;4.53;;;;;;;22.22;89.27;100074.55;713658;1205;115433;-75
2021/06/12 06:45:42;;;;;;;11.00;8.23;;;;;;;22.52;86.81;100057.09;713679;1203;115331;-76
2021/06/12 07:01:02;;;;;;;6.68;4.00;;;;;;;23.25;84.68;100039.47;713982;1202;115385;-81
2021/06/12 07:16:23;;;;;;;4.60;4.10;;;;;;;23.37;82.38;100034.17;713910;1206;113840;-74
2021/06/12 07:31:44;;;;;;;7.43;5.78;;;;;;;23.47;82.25;100005.02;714185;1202;115016;-72
2021/06/12 07:47:05;;;;;;;8.23;5.45;;;;;;;24.20;82.66;100010.31;713945;1200;114875;-73
2021/06/12 08:02:25;;;;;;;9.00;5.60;;;;;;;24.55;79.64;99964.73;714832;1178;113715;-89
2021/06/12 08:17:46;;;;;;;3.67;3.00;;;;;;;24.67;78.66;99970.11;714456;1184;113634;-82
2021/06/12 08:33:08;;;;;;;2.95;2.45;;;;;;;24.62;76.83;99964.61;716394;1199;113935;-83
2021/06/12 08:48:29;;;;;;;6.80;2.75;;;;;;;24.98;75.77;99932.36;717310;1205;113506;-83
2021/06/12 09:03:50;;;;;;;4.95;2.90;;;;;;;25.04;74.97;99917.99;714953;1200;115238;-73
2021/06/12 09:19:12;;;;;;;6.63;3.77;;;;;;;24.88;74.51;99908.84;715833;1200;115180;-73
2021/06/12 09:34:33;;;;;;;5.87;3.97;;;;;;;24.50;75.27;99899.48;728679;1200;113982;-84
2021/06/12 09:49:59;;;;;;;6.33;4.35;;;;;;;24.02;75.67;99880.80;716145;1203;114489;-86
2021/06/12 10:05:22;;;;;;;11.57;6.17;;;;;;;23.67;76.97;99859.34;716009;1182;115254;-83
2021/06/12 10:20:42;;;;;;;6.85;4.00;;;;;;;23.14;80.05;99847.63;716339;1177;113823;-84
2021/06/12 10:36:30;;;;;;;5.47;3.80;;;;;;;22.57;86.84;99902.24;717674;1200;113937;-83
2021/06/12 10:51:50;;;;;;;8.30;4.60;;;;;;;19.42;100.00;99915.17;714762;1200;114515;-83
2021/06/12 11:20:28;;;;;;;7.38;6.13;;;;;;;19.73;100.00;99884.52;715333;1185;23646;-81
2021/06/12 11:35:49;;;;;;;16.60;12.20;;;;;;;19.62;100.00;99855.85;716981;1200;114827;-78
2021/06/12 11:50:52;;;;;;;16.95;13.98;;;;;;;19.37;100.00;99848.47;715576;1200;115410;-77
2021/06/12 12:05:59;;;;;;;14.50;9.13;;;;;;;19.76;100.00;99824.75;715856;1200;114744;-77
2021/06/12 12:21:02;;;;;;;7.98;4.95;;;;;;;19.74;100.00;99822.30;715738;1202;114539;-77
2021/06/12 12:36:04;;;;;;;18.60;8.65;;;;;;;19.97;100.00;99793.59;714485;1200;114793;-78
2021/06/12 12:51:08;;;;;;;14.47;9.70;;;;;;;19.70;100.00;99783.80;714362;1202;113800;-77
2021/06/12 13:06:35;;;;;;;11.93;8.58;;;;;;;19.96;100.00;99779.48;715072;1202;114601;-77
2021/06/12 13:21:48;;;;;;;10.80;8.80;;;;;;;19.68;100.00;99785.06;714366;1203;113668;-78
2021/06/12 13:36:53;;;;;;;9.33;7.08;;;;;;;18.90;100.00;99794.45;715192;1200;113640;-78
2021/06/12 13:51:55;;;;;;;14.00;8.73;;;;;;;18.45;100.00;99798.38;714700;1183;114511;-77
2021/06/12 14:06:57;;;;;;;9.13;7.77;;;;;;;18.57;100.00;99790.66;714961;1202;116645;-78
2021/06/12 14:22:00;;;;;;;13.57;9.83;;;;;;;17.95;100.00;99806.52;714739;1203;114035;-84
2021/06/12 14:37:02;;;;;;;6.85;5.18;;;;;;;17.52;100.00;99774.78;714800;1202;114324;-78
2021/06/12 14:52:04;;;;;;;27.38;17.38;;;;;;;17.13;100.00;99761.03;715031;1200;113629;-77
2021/06/12 15:07:19;;;;;;;13.08;9.68;;;;;;;17.18;100.00;99749.03;714938;1202;115215;-77
2021/06/12 15:22:22;;;;;;;15.05;9.45;;;;;;;17.09;100.00;99751.83;714713;1202;113636;-83
2021/06/12 15:37:24;;;;;;;14.05;9.20;;;;;;;17.24;100.00;99690.77;715173;1202;114394;-80
2021/06/12 15:52:26;;;;;;;11.18;6.58;;;;;;;17.22;100.00;99673.42;715426;1202;115439;-79
2021/06/12 16:07:28;;;;;;;5.13;3.87;;;;;;;17.00;100.00;99678.78;714180;1202;114403;-77
2021/06/12 16:22:31;;;;;;;4.73;3.33;;;;;;;17.20;100.00;99656.91;714771;1206;113639;-80
2021/06/12 16:37:34;;;;;;;10.27;6.93;;;;;;;16.93;100.00;99693.79;714837;1202;114753;-86
2021/06/12 16:52:40;;;;;;;14.68;8.75;;;;;;;16.29;100.00;99682.98;714310;1200;113712;-85
2021/06/12 17:07:43;;;;;;;9.65;6.95;;;;;;;16.11;100.00;99694.00;715357;1203;114541;-87
2021/06/12 17:22:45;;;;;;;12.78;7.45;;;;;;;15.78;100.00;99697.02;714230;1203;113829;-85
2021/06/12 17:37:48;;;;;;;18.20;10.50;;;;;;;15.82;100.00;99702.77;714328;1188;113671;-86
2021/06/12 17:52:50;;;;;;;10.40;6.53;;;;;;;15.74;100.00;99722.16;716125;1200;114041;-78
2021/06/12 18:07:53;;;;;;;24.08;12.28;;;;;;;15.61;100.00;99699.03;714410;1175;112988;-79
2021/06/12 18:22:56;;;;;;;12.13;8.03;;;;;;;15.89;100.00;99698.41;720111;1198;114430;-76
2021/06/12 18:37:59;;;;;;;14.47;6.90;;;;;;;15.68;100.00;99717.63;714004;1202;114375;-74
2021/06/12 18:53:02;;;;;;;11.73;6.67;;;;;;;15.29;100.00;99737.17;714356;1202;114191;-75
2021/06/12 19:08:04;;;;;;;10.10;5.93;;;;;;;14.99;100.00;99763.50;714348;1177;114356;-75
2021/06/12 19:23:07;;;;;;;7.90;5.93;;;;;;;14.70;100.00;99780.88;714485;1202;114159;-75
2021/06/12 19:53:13;;;;;;;13.20;6.95;;;;;;;14.60;100.00;99798.72;714272;1200;114349;-75
2021/06/12 20:08:15;;;;;;;11.88;6.65;;;;;;;14.81;100.00;99816.62;714294;1199;114500;-76
2021/06/12 20:23:18;;;;;;;11.40;6.63;;;;;;;14.63;100.00;99830.03;714703;1204;115800;-75
2021/06/12 20:38:25;;;;;;;15.30;8.10;;;;;;;14.70;100.00;99877.72;714493;1205;113741;-75
2021/06/12 20:53:27;;;;;;;8.60;5.77;;;;;;;14.34;100.00;99881.61;714285;1203;114348;-75
2021/06/12 21:08:30;;;;;;;9.03;3.90;;;;;;;13.88;100.00;99866.38;714519;1200;115102;-77
2021/06/12 21:23:33;;;;;;;7.48;2.83;;;;;;;13.81;100.00;99878.59;714854;1202;114792;-77
2021/06/12 21:38:35;;;;;;;9.73;3.23;;;;;;;13.72;100.00;99884.86;714821;1202;114876;-76
2021/06/12 21:53:39;;;;;;;9.75;4.93;;;;;;;13.36;100.00;99899.16;714695;1202;113838;-75
2021/06/12 22:08:41;;;;;;;9.50;3.77;;;;;;;12.87;100.00;99905.11;714801;1200;113499;-76
2021/06/12 22:23:44;;;;;;;9.03;3.93;;;;;;;12.70;100.00;99901.59;714592;1202;113849;-75
2021/06/12 22:38:46;;;;;;;11.50;5.20;;;;;;;12.59;100.00;99902.70;714164;1205;114131;-75
2021/06/12 22:53:50;;;;;;;7.15;4.03;;;;;;;12.51;100.00;99901.83;714276;1200;114735;-77
2021/06/12 23:08:52;;;;;;;10.70;3.77;;;;;;;12.35;100.00;99894.69;714277;1202;114197;-77
2021/06/12 23:23:54;;;;;;;12.80;4.35;;;;;;;12.30;100.00;99898.61;714197;1177;113922;-77
2021/06/12 23:39:01;;;;;;;11.10;4.10;;;;;;;12.18;100.00;99910.38;714074;1202;115137;-77
2021/06/12 23:54:05;;;;;;;9.58;3.48;;;;;;;12.13;100.00;99908.20;714298;1203;114522;-77
